createdAt,value
2017-08-26T00:00:50.320Z,96
2017-08-26T00:01:52.739Z,96
2017-08-26T00:02:55.179Z,96
2017-08-26T00:03:57.943Z,96
2017-08-26T00:05:00.370Z,96
2017-08-26T00:06:02.800Z,96
2017-08-26T00:07:05.220Z,96
2017-08-26T00:08:07.643Z,96
2017-08-26T00:09:10.327Z,96
2017-08-26T00:10:12.748Z,96
2017-08-26T00:11:15.167Z,96
2017-08-26T00:12:17.591Z,96
2017-08-26T00:13:20.355Z,96
2017-08-26T00:14:22.781Z,96
2017-08-26T00:15:25.212Z,96
2017-08-26T00:16:27.984Z,96
2017-08-26T00:17:30.406Z,96
2017-08-26T00:18:32.841Z,96
2017-08-26T00:19:35.400Z,96
2017-08-26T00:20:38.167Z,96
2017-08-26T00:21:40.588Z,96
2017-08-26T00:22:43.351Z,96
2017-08-26T00:23:45.866Z,96
2017-08-26T00:24:48.297Z,96
2017-08-26T00:25:50.714Z,96
2017-08-26T00:26:53.479Z,96
2017-08-26T00:27:56.244Z,96
2017-08-26T00:28:58.673Z,96
2017-08-26T00:30:01.431Z,96
2017-08-26T00:31:03.852Z,96
2017-08-26T00:32:06.284Z,96
2017-08-26T00:33:08.711Z,97
2017-08-26T00:34:11.871Z,97
2017-08-26T00:35:14.301Z,97
2017-08-26T00:36:16.717Z,97
2017-08-26T00:37:19.141Z,97
2017-08-26T00:38:21.745Z,97
2017-08-26T00:39:24.164Z,97
2017-08-26T00:40:26.583Z,97
2017-08-26T00:41:29.016Z,97
2017-08-26T00:42:31.436Z,97
2017-08-26T00:43:33.996Z,97
2017-08-26T00:44:36.428Z,97
2017-08-26T00:45:38.858Z,97
2017-08-26T00:46:41.282Z,97
2017-08-26T00:47:43.705Z,97
2017-08-26T00:48:46.384Z,97
2017-08-26T00:49:48.821Z,97
2017-08-26T00:50:51.238Z,97
2017-08-26T00:51:53.659Z,97
2017-08-26T00:52:56.430Z,97
2017-08-26T00:53:58.858Z,97
2017-08-26T00:55:01.287Z,97
2017-08-26T00:56:03.713Z,97
2017-08-26T00:57:06.140Z,97
2017-08-26T00:58:08.572Z,97
2017-08-26T00:59:11.004Z,97
2017-08-26T01:00:13.428Z,97
2017-08-26T01:01:15.843Z,97
2017-08-26T01:02:18.268Z,97
2017-08-26T01:03:21.038Z,97
2017-08-26T01:04:23.562Z,97
2017-08-26T01:05:25.984Z,97
2017-08-26T01:06:28.412Z,97
2017-08-26T01:07:30.839Z,97
2017-08-26T01:08:33.271Z,97
2017-08-26T01:09:35.816Z,97
2017-08-26T01:10:38.249Z,97
2017-08-26T01:11:40.676Z,97
2017-08-26T01:12:43.102Z,96
2017-08-26T01:13:45.551Z,96
2017-08-26T01:14:48.141Z,96
2017-08-26T01:15:50.566Z,96
2017-08-26T01:16:52.997Z,96
2017-08-26T01:17:55.411Z,96
2017-08-26T01:18:57.918Z,96
2017-08-26T01:20:00.348Z,96
2017-08-26T01:21:03.462Z,96
2017-08-26T01:22:06.229Z,96
2017-08-26T01:23:08.996Z,96
2017-08-26T01:24:11.417Z,96
2017-08-26T01:25:13.850Z,96
2017-08-26T01:26:16.617Z,96
2017-08-26T01:27:19.038Z,96
2017-08-26T01:28:21.465Z,96
2017-08-26T01:29:23.995Z,96
2017-08-26T01:30:26.763Z,96
2017-08-26T01:31:29.197Z,96
2017-08-26T01:32:31.611Z,96
2017-08-26T01:33:34.483Z,96
2017-08-26T01:34:36.910Z,96
2017-08-26T01:35:39.334Z,96
2017-08-26T01:36:41.757Z,96
2017-08-26T01:37:44.187Z,96
2017-08-26T01:38:46.998Z,97
2017-08-26T01:39:49.762Z,97
2017-08-26T01:40:52.188Z,97
2017-08-26T01:41:54.626Z,97
2017-08-26T01:42:57.042Z,97
2017-08-26T01:43:59.466Z,97
2017-08-26T01:45:02.234Z,97
2017-08-26T01:46:04.656Z,97
2017-08-26T01:47:07.088Z,97
2017-08-26T01:48:09.515Z,97
2017-08-26T01:49:12.152Z,97
2017-08-26T01:50:14.587Z,97
2017-08-26T01:51:17.010Z,97
2017-08-26T01:52:19.436Z,97
2017-08-26T01:53:21.860Z,97
2017-08-26T01:54:24.287Z,97
2017-08-26T01:55:26.713Z,97
2017-08-26T01:56:29.161Z,97
2017-08-26T01:57:31.579Z,97
2017-08-26T01:58:34.005Z,97
2017-08-26T01:59:36.430Z,97
2017-08-26T02:00:39.205Z,97
2017-08-26T02:01:41.627Z,96
2017-08-26T02:02:44.154Z,96
2017-08-26T02:03:46.917Z,97
2017-08-26T02:04:49.692Z,97
2017-08-26T02:05:52.121Z,97
2017-08-26T02:06:54.549Z,97
2017-08-26T02:07:56.987Z,97
2017-08-26T02:08:59.414Z,97
2017-08-26T02:10:01.842Z,97
2017-08-26T02:11:04.271Z,97
2017-08-26T02:12:06.693Z,97
2017-08-26T02:13:09.125Z,97
2017-08-26T02:14:11.570Z,98
2017-08-26T02:15:13.986Z,98
2017-08-26T02:16:16.420Z,98
2017-08-26T02:17:18.845Z,98
2017-08-26T02:18:21.268Z,98
2017-08-26T02:19:23.699Z,98
2017-08-26T02:20:26.461Z,98
2017-08-26T02:21:28.891Z,98
2017-08-26T02:22:31.322Z,97
2017-08-26T02:23:33.858Z,97
2017-08-26T02:24:36.289Z,97
2017-08-26T02:25:38.718Z,97
2017-08-26T02:26:41.143Z,97
2017-08-26T02:27:43.575Z,97
2017-08-26T02:28:46.000Z,97
2017-08-26T02:29:48.418Z,97
2017-08-26T02:30:50.844Z,97
2017-08-26T02:31:53.619Z,97
2017-08-26T02:32:56.051Z,97
2017-08-26T02:33:58.477Z,97
2017-08-26T02:35:01.243Z,97
2017-08-26T02:36:03.673Z,97
2017-08-26T02:37:06.105Z,97
2017-08-26T02:38:08.529Z,97
2017-08-26T02:39:10.958Z,97
2017-08-26T02:40:13.382Z,97
2017-08-26T02:41:15.816Z,97
2017-08-26T02:42:18.255Z,97
2017-08-26T02:43:20.679Z,97
2017-08-26T02:44:23.452Z,97
2017-08-26T02:45:25.872Z,97
2017-08-26T02:46:28.302Z,97
2017-08-26T02:47:30.727Z,97
2017-08-26T02:48:33.155Z,97
2017-08-26T02:49:35.578Z,97
2017-08-26T02:50:38.007Z,97
2017-08-26T02:51:40.434Z,97
2017-08-26T02:52:43.197Z,97
2017-08-26T02:53:45.630Z,97
2017-08-26T02:54:48.061Z,97
2017-08-26T02:55:50.489Z,97
2017-08-26T02:56:52.910Z,97
2017-08-26T02:57:55.344Z,97
2017-08-26T02:58:57.777Z,97
2017-08-26T03:00:00.204Z,97
2017-08-26T03:01:02.632Z,97
2017-08-26T03:02:05.055Z,97
2017-08-26T03:03:07.475Z,97
2017-08-26T03:04:09.916Z,97
2017-08-26T03:05:12.365Z,97
2017-08-26T03:06:14.791Z,97
2017-08-26T03:07:17.219Z,97
2017-08-26T03:08:19.660Z,97
2017-08-26T03:09:22.071Z,97
2017-08-26T03:10:24.841Z,97
2017-08-26T03:11:27.287Z,97
2017-08-26T03:12:29.714Z,97
2017-08-26T03:13:32.476Z,97
2017-08-26T03:14:34.908Z,97
2017-08-26T03:15:37.327Z,97
2017-08-26T03:16:39.762Z,97
2017-08-26T03:17:42.193Z,97
2017-08-26T03:18:44.615Z,97
2017-08-26T03:19:47.044Z,97
2017-08-26T03:20:49.478Z,97
2017-08-26T03:21:51.903Z,97
2017-08-26T03:22:54.692Z,97
2017-08-26T03:23:57.803Z,97
2017-08-26T03:25:00.226Z,97
2017-08-26T03:26:02.671Z,97
2017-08-26T03:27:05.090Z,97
2017-08-26T03:28:07.873Z,97
2017-08-26T03:29:10.300Z,97
2017-08-26T03:30:12.720Z,97
2017-08-26T03:31:15.151Z,97
2017-08-26T03:32:17.582Z,97
2017-08-26T03:33:20.006Z,97
2017-08-26T03:34:22.427Z,97
2017-08-26T03:35:24.859Z,97
2017-08-26T03:36:27.286Z,97
2017-08-26T03:37:29.712Z,97
2017-08-26T03:38:32.144Z,97
2017-08-26T03:39:34.591Z,97
2017-08-26T03:40:36.991Z,97
2017-08-26T03:41:39.445Z,97
2017-08-26T03:42:41.877Z,97
2017-08-26T03:43:44.298Z,97
2017-08-26T03:44:46.724Z,97
2017-08-26T03:45:49.141Z,97
2017-08-26T03:46:52.272Z,97
2017-08-26T03:47:54.704Z,97
2017-08-26T03:48:57.125Z,97
2017-08-26T03:49:59.547Z,97
2017-08-26T03:51:01.968Z,97
2017-08-26T03:52:04.388Z,97
2017-08-26T03:53:06.828Z,97
2017-08-26T03:54:09.251Z,97
2017-08-26T03:55:11.671Z,97
2017-08-26T03:56:14.440Z,97
2017-08-26T03:57:16.862Z,97
2017-08-26T03:58:19.293Z,97
2017-08-26T03:59:22.072Z,97
2017-08-26T04:00:24.825Z,97
2017-08-26T04:01:27.253Z,97
2017-08-26T04:02:30.028Z,97
2017-08-26T04:03:32.446Z,97
2017-08-26T04:04:34.872Z,97
2017-08-26T04:05:37.291Z,97
2017-08-26T04:06:39.712Z,97
2017-08-26T04:07:42.136Z,97
2017-08-26T04:08:44.562Z,97
2017-08-26T04:09:46.990Z,98
2017-08-26T04:10:49.415Z,97
2017-08-26T04:11:51.833Z,97
2017-08-26T04:12:54.252Z,97
2017-08-26T04:13:57.022Z,97
2017-08-26T04:14:59.453Z,97
2017-08-26T04:16:02.219Z,97
2017-08-26T04:17:04.645Z,97
2017-08-26T04:18:07.074Z,97
2017-08-26T04:19:09.507Z,98
2017-08-26T04:20:11.931Z,98
2017-08-26T04:21:14.352Z,98
2017-08-26T04:22:16.776Z,98
2017-08-26T04:23:19.199Z,97
2017-08-26T04:24:21.634Z,98
2017-08-26T04:25:24.050Z,97
2017-08-26T04:26:26.461Z,97
2017-08-26T04:27:28.925Z,97
2017-08-26T04:28:31.391Z,97
2017-08-26T04:29:33.883Z,97
2017-08-26T04:30:36.343Z,97
2017-08-26T04:31:39.146Z,97
2017-08-26T04:32:41.609Z,97
2017-08-26T04:33:44.074Z,98
2017-08-26T04:34:46.534Z,98
2017-08-26T04:35:49.369Z,98
2017-08-26T04:36:51.831Z,98
2017-08-26T04:37:54.286Z,98
2017-08-26T04:38:56.748Z,98
2017-08-26T04:39:59.207Z,98
2017-08-26T04:41:01.658Z,98
2017-08-26T04:42:04.124Z,98
2017-08-26T04:43:06.592Z,98
2017-08-26T04:44:09.055Z,98
2017-08-26T04:45:11.897Z,98
2017-08-26T04:46:14.359Z,98
2017-08-26T04:47:16.821Z,98
2017-08-26T04:48:19.292Z,98
2017-08-26T04:49:21.757Z,98
2017-08-26T04:50:24.226Z,98
2017-08-26T04:51:26.692Z,98
2017-08-26T04:52:29.141Z,98
2017-08-26T04:53:31.637Z,98
2017-08-26T04:54:34.108Z,98
2017-08-26T04:55:36.581Z,98
2017-08-26T04:56:39.057Z,98
2017-08-26T04:57:41.527Z,98
2017-08-26T04:58:43.987Z,98
2017-08-26T04:59:46.455Z,98
2017-08-26T05:00:48.915Z,98
2017-08-26T05:01:51.365Z,98
2017-08-26T05:02:53.838Z,98
2017-08-26T05:03:56.452Z,98
2017-08-26T05:04:59.255Z,98
2017-08-26T05:06:02.064Z,98
2017-08-26T05:07:04.519Z,98
2017-08-26T05:08:06.980Z,98
2017-08-26T05:09:09.433Z,98
2017-08-26T05:10:11.896Z,98
2017-08-26T05:11:14.836Z,98
2017-08-26T05:12:17.991Z,98
2017-08-26T05:13:20.449Z,98
2017-08-26T05:14:22.909Z,98
2017-08-26T05:15:25.375Z,98
2017-08-26T05:16:27.836Z,98
2017-08-26T05:17:30.295Z,98
2017-08-26T05:18:32.769Z,98
2017-08-26T05:19:35.224Z,98
2017-08-26T05:20:37.921Z,98
2017-08-26T05:21:40.376Z,98
2017-08-26T05:22:42.842Z,98
2017-08-26T05:23:45.296Z,98
2017-08-26T05:24:47.763Z,98
2017-08-26T05:25:50.221Z,98
2017-08-26T05:26:53.044Z,98
2017-08-26T05:27:55.503Z,98
2017-08-26T05:28:58.310Z,98
2017-08-26T05:30:00.772Z,98
2017-08-26T05:31:03.238Z,98
2017-08-26T05:32:05.700Z,98
2017-08-26T05:33:08.666Z,98
2017-08-26T05:34:11.132Z,98
2017-08-26T05:35:13.598Z,98
2017-08-26T05:36:16.061Z,98
2017-08-26T05:37:18.858Z,98
2017-08-26T05:38:21.319Z,98
2017-08-26T05:39:23.831Z,98
2017-08-26T05:40:26.307Z,98
2017-08-26T05:41:29.137Z,98
2017-08-26T05:42:31.596Z,98
2017-08-26T05:43:34.409Z,98
2017-08-26T05:44:36.985Z,98
2017-08-26T05:45:39.465Z,98
2017-08-26T05:46:42.266Z,98
2017-08-26T05:47:44.894Z,98
2017-08-26T05:48:47.355Z,98
2017-08-26T05:49:49.815Z,98
2017-08-26T05:50:52.648Z,98
2017-08-26T05:51:55.108Z,98
2017-08-26T05:52:57.566Z,98
2017-08-26T05:54:00.035Z,98
2017-08-26T05:55:02.491Z,98
2017-08-26T05:56:04.954Z,98
2017-08-26T05:57:07.409Z,98
2017-08-26T05:58:10.209Z,98
2017-08-26T05:59:12.687Z,98
2017-08-26T06:00:15.498Z,98
2017-08-26T06:01:17.960Z,98
2017-08-26T06:02:20.421Z,98
2017-08-26T06:03:22.888Z,98
2017-08-26T06:04:25.699Z,98
2017-08-26T06:05:28.168Z,98
2017-08-26T06:06:30.983Z,98
2017-08-26T06:07:33.547Z,97
2017-08-26T06:08:35.996Z,97
2017-08-26T06:09:38.679Z,97
2017-08-26T06:10:41.592Z,97
2017-08-26T06:11:44.057Z,97
2017-08-26T06:12:46.525Z,97
2017-08-26T06:13:48.985Z,97
2017-08-26T06:14:51.441Z,97
2017-08-26T06:15:53.915Z,97
2017-08-26T06:16:56.381Z,97
2017-08-26T06:17:59.176Z,97
2017-08-26T06:19:01.642Z,97
2017-08-26T06:20:04.253Z,97
2017-08-26T06:21:06.712Z,97
2017-08-26T06:22:09.184Z,97
2017-08-26T06:23:11.639Z,97
2017-08-26T06:24:14.098Z,97
2017-08-26T06:25:16.573Z,96
2017-08-26T06:26:19.115Z,96
2017-08-26T06:27:21.580Z,96
2017-08-26T06:28:24.054Z,96
2017-08-26T06:29:26.683Z,95
2017-08-26T06:30:29.156Z,94
2017-08-26T06:31:31.631Z,94
2017-08-26T06:32:34.084Z,93
2017-08-26T06:33:36.550Z,93
2017-08-26T06:34:39.022Z,94
2017-08-26T06:35:41.492Z,94
2017-08-26T06:36:44.305Z,94
2017-08-26T06:37:46.767Z,94
2017-08-26T06:38:49.240Z,94
2017-08-26T06:39:51.702Z,94
2017-08-26T06:40:54.376Z,93
2017-08-26T06:41:56.863Z,92
2017-08-26T06:42:59.318Z,91
2017-08-26T06:44:01.790Z,91
2017-08-26T06:45:04.254Z,91
2017-08-26T06:46:06.720Z,91
2017-08-26T06:47:09.286Z,91
2017-08-26T06:48:11.754Z,92
2017-08-26T06:49:14.367Z,91
2017-08-26T06:50:16.928Z,90
2017-08-26T06:51:19.391Z,90
2017-08-26T06:52:21.854Z,90
2017-08-26T06:53:24.319Z,90
2017-08-26T06:54:27.132Z,90
2017-08-26T06:55:29.598Z,90
2017-08-26T06:56:32.075Z,91
2017-08-26T06:57:34.540Z,90
2017-08-26T06:58:37.007Z,89
2017-08-26T06:59:39.995Z,89
2017-08-26T07:00:42.467Z,89
2017-08-26T07:01:44.930Z,90
2017-08-26T07:02:47.399Z,89
2017-08-26T07:03:49.858Z,89
2017-08-26T07:04:52.337Z,89
2017-08-26T07:05:54.794Z,90
2017-08-26T07:06:57.265Z,89
2017-08-26T07:07:59.743Z,89
2017-08-26T07:09:02.207Z,89
2017-08-26T07:10:04.677Z,88
2017-08-26T07:11:07.314Z,88
2017-08-26T07:12:09.787Z,88
2017-08-26T07:13:50.590Z,87
2017-08-26T07:14:53.349Z,87
2017-08-26T07:15:55.756Z,87
2017-08-26T07:16:58.193Z,85
2017-08-26T07:18:00.673Z,85
2017-08-26T07:19:03.086Z,86
2017-08-26T07:20:05.495Z,84
2017-08-26T07:21:07.908Z,85
2017-08-26T07:22:10.305Z,83
2017-08-26T07:23:12.723Z,82
2017-08-26T07:24:15.134Z,82
2017-08-26T07:25:17.545Z,82
2017-08-26T07:26:19.958Z,82
2017-08-26T07:27:22.715Z,82
2017-08-26T07:28:25.120Z,83
2017-08-26T07:29:27.532Z,84
2017-08-26T07:30:30.278Z,84
2017-08-26T07:31:32.687Z,85
2017-08-26T07:32:35.093Z,84
2017-08-26T07:33:37.499Z,83
2017-08-26T07:34:39.913Z,83
2017-08-26T07:35:42.328Z,82
2017-08-26T07:36:44.740Z,82
2017-08-26T07:37:47.145Z,81
2017-08-26T07:38:49.560Z,82
2017-08-26T07:39:51.966Z,82
2017-08-26T07:40:54.707Z,82
2017-08-26T07:41:57.141Z,81
2017-08-26T07:42:59.553Z,80
2017-08-26T07:44:02.662Z,79
2017-08-26T07:45:05.074Z,79
2017-08-26T07:46:07.833Z,79
2017-08-26T07:47:10.242Z,78
2017-08-26T07:48:12.666Z,79
2017-08-26T07:49:15.056Z,80
2017-08-26T07:50:17.812Z,80
2017-08-26T07:51:20.214Z,80
2017-08-26T07:52:22.628Z,79
2017-08-26T07:53:57.174Z,79
2017-08-26T07:54:59.604Z,78
2017-08-26T07:56:02.043Z,77
2017-08-26T07:57:04.479Z,77
2017-08-26T07:58:06.913Z,77
2017-08-26T07:59:09.351Z,80
2017-08-26T08:00:11.788Z,80
2017-08-26T08:01:14.221Z,80
2017-08-26T08:02:16.652Z,78
2017-08-26T08:03:19.083Z,78
2017-08-26T08:04:21.518Z,78
2017-08-26T08:05:23.947Z,76
2017-08-26T08:06:26.378Z,75
2017-08-26T08:07:28.818Z,75
2017-08-26T08:08:31.247Z,72
2017-08-26T08:09:33.681Z,71
2017-08-26T08:10:36.120Z,70
2017-08-26T08:11:38.898Z,70
2017-08-26T08:12:41.331Z,70
2017-08-26T08:13:44.120Z,69
2017-08-26T08:14:46.552Z,68
2017-08-26T08:15:48.996Z,69
2017-08-26T08:16:51.431Z,68
2017-08-26T08:17:53.865Z,69
2017-08-26T08:18:56.295Z,68
2017-08-26T08:19:58.735Z,68
2017-08-26T08:21:01.171Z,70
2017-08-26T08:22:03.606Z,68
2017-08-26T08:23:06.037Z,68
2017-08-26T08:24:08.472Z,67
2017-08-26T08:25:10.906Z,67
2017-08-26T08:26:13.346Z,67
2017-08-26T08:27:15.781Z,67
2017-08-26T08:28:18.221Z,67
2017-08-26T08:29:20.662Z,67
2017-08-26T08:30:23.104Z,66
2017-08-26T08:31:25.535Z,66
2017-08-26T08:32:27.968Z,66
2017-08-26T08:33:30.401Z,66
2017-08-26T08:34:32.837Z,67
2017-08-26T08:35:35.272Z,67
2017-08-26T08:36:37.712Z,68
2017-08-26T08:37:40.151Z,67
2017-08-26T08:38:42.925Z,67
2017-08-26T08:39:45.354Z,66
2017-08-26T08:40:47.782Z,66
2017-08-26T08:41:50.225Z,66
2017-08-26T08:42:52.652Z,66
2017-08-26T08:43:55.086Z,65
2017-08-26T08:44:57.529Z,65
2017-08-26T08:45:59.964Z,65
2017-08-26T08:47:02.755Z,65
2017-08-26T08:48:05.193Z,65
2017-08-26T08:49:07.626Z,66
2017-08-26T08:50:10.067Z,66
2017-08-26T08:51:12.506Z,69
2017-08-26T08:52:14.945Z,69
2017-08-26T08:53:17.379Z,67
2017-08-26T08:54:19.801Z,63
2017-08-26T08:55:22.245Z,63
2017-08-26T08:56:24.688Z,64
2017-08-26T08:57:27.118Z,66
2017-08-26T08:58:29.578Z,67
2017-08-26T08:59:32.010Z,67
2017-08-26T09:00:34.447Z,66
2017-08-26T09:01:36.893Z,66
2017-08-26T09:02:39.328Z,66
2017-08-26T09:03:41.764Z,65
2017-08-26T09:04:44.202Z,63
2017-08-26T09:05:47.007Z,63
2017-08-26T09:06:49.447Z,63
2017-08-26T09:07:51.884Z,63
2017-08-26T09:08:54.319Z,63
2017-08-26T09:09:56.760Z,66
2017-08-26T09:10:59.194Z,64
2017-08-26T09:12:01.643Z,63
2017-08-26T09:13:04.424Z,62
2017-08-26T09:14:06.860Z,62
2017-08-26T09:15:09.302Z,61
2017-08-26T09:16:11.743Z,61
2017-08-26T09:17:14.183Z,61
2017-08-26T09:18:16.629Z,60
2017-08-26T09:19:19.407Z,60
2017-08-26T09:20:21.852Z,61
2017-08-26T09:21:24.292Z,60
2017-08-26T09:22:27.066Z,60
2017-08-26T09:23:29.503Z,60
2017-08-26T09:24:31.944Z,61
2017-08-26T09:25:34.391Z,61
2017-08-26T09:26:36.843Z,60
2017-08-26T09:27:39.274Z,61
2017-08-26T09:28:41.717Z,61
2017-08-26T09:29:44.163Z,60
2017-08-26T09:30:46.606Z,61
2017-08-26T09:31:49.050Z,60
2017-08-26T09:32:51.485Z,60
2017-08-26T09:33:53.920Z,58
2017-08-26T09:34:56.365Z,59
2017-08-26T09:35:59.147Z,59
2017-08-26T09:37:01.600Z,58
2017-08-26T09:38:04.043Z,59
2017-08-26T09:39:06.474Z,58
2017-08-26T09:40:08.915Z,57
2017-08-26T09:41:11.361Z,59
2017-08-26T09:42:13.799Z,58
2017-08-26T09:43:16.241Z,58
2017-08-26T09:44:19.023Z,58
2017-08-26T09:45:21.470Z,58
2017-08-26T09:46:24.255Z,58
2017-08-26T09:47:26.700Z,58
2017-08-26T09:48:29.144Z,60
2017-08-26T09:49:31.583Z,58
2017-08-26T09:50:34.022Z,58
2017-08-26T09:51:36.475Z,59
2017-08-26T09:52:38.916Z,60
2017-08-26T09:53:41.358Z,62
2017-08-26T09:54:43.805Z,61
2017-08-26T09:55:46.246Z,60
2017-08-26T09:56:48.687Z,59
2017-08-26T09:57:51.131Z,60
2017-08-26T09:58:53.570Z,61
2017-08-26T09:59:56.010Z,61
2017-08-26T10:00:58.463Z,57
2017-08-26T10:02:00.903Z,58
2017-08-26T10:03:03.354Z,58
2017-08-26T10:04:05.797Z,60
2017-08-26T10:05:08.246Z,58
2017-08-26T10:06:11.041Z,58
2017-08-26T10:07:13.485Z,58
2017-08-26T10:08:15.926Z,58
2017-08-26T10:09:18.369Z,59
2017-08-26T10:10:20.806Z,60
2017-08-26T10:11:23.254Z,59
2017-08-26T10:12:25.701Z,57
2017-08-26T10:13:28.146Z,57
2017-08-26T10:14:31.277Z,55
2017-08-26T10:15:34.069Z,55
2017-08-26T10:16:36.519Z,55
2017-08-26T10:17:38.964Z,57
2017-08-26T10:18:41.401Z,56
2017-08-26T10:19:44.196Z,53
2017-08-26T10:20:46.644Z,54
2017-08-26T10:21:49.448Z,55
2017-08-26T10:22:52.244Z,57
2017-08-26T10:23:54.695Z,54
2017-08-26T10:24:57.132Z,53
2017-08-26T10:25:59.589Z,53
2017-08-26T10:27:02.053Z,54
2017-08-26T10:28:04.475Z,54
2017-08-26T10:29:07.267Z,52
2017-08-26T10:30:09.711Z,55
2017-08-26T10:31:12.159Z,53
2017-08-26T10:32:14.610Z,51
2017-08-26T10:33:17.051Z,50
2017-08-26T10:34:19.489Z,50
2017-08-26T10:35:21.941Z,50
2017-08-26T10:36:24.396Z,50
2017-08-26T10:37:26.839Z,49
2017-08-26T10:38:29.273Z,50
2017-08-26T10:39:32.061Z,51
2017-08-26T10:40:34.506Z,50
2017-08-26T10:41:36.959Z,50
2017-08-26T10:42:39.413Z,51
2017-08-26T10:43:41.855Z,50
2017-08-26T10:44:44.637Z,51
2017-08-26T10:45:47.089Z,50
2017-08-26T10:46:49.528Z,49
2017-08-26T10:47:51.970Z,49
2017-08-26T10:48:54.415Z,48
2017-08-26T10:49:56.864Z,48
2017-08-26T10:50:59.311Z,49
2017-08-26T10:52:02.130Z,50
2017-08-26T10:53:04.908Z,50
2017-08-26T10:54:07.372Z,50
2017-08-26T10:55:09.824Z,49
2017-08-26T10:56:12.270Z,49
2017-08-26T10:57:14.717Z,47
2017-08-26T10:58:17.500Z,50
2017-08-26T10:59:19.937Z,48
2017-08-26T11:00:22.743Z,48
2017-08-26T11:01:25.192Z,49
2017-08-26T11:02:27.974Z,46
2017-08-26T11:03:30.422Z,47
2017-08-26T11:04:32.862Z,48
2017-08-26T11:05:35.306Z,47
2017-08-26T11:06:38.100Z,46
2017-08-26T11:07:40.546Z,47
2017-08-26T11:08:43.000Z,46
2017-08-26T11:09:45.441Z,48
2017-08-26T11:10:48.233Z,46
2017-08-26T11:11:50.690Z,46
2017-08-26T11:12:53.138Z,48
2017-08-26T11:13:55.584Z,47
2017-08-26T11:14:58.030Z,46
2017-08-26T11:16:00.476Z,49
2017-08-26T11:17:02.987Z,48
2017-08-26T11:18:05.484Z,49
2017-08-26T11:19:07.929Z,48
2017-08-26T11:20:10.376Z,45
2017-08-26T11:21:12.825Z,47
2017-08-26T11:22:15.261Z,46
2017-08-26T11:23:17.713Z,48
2017-08-26T11:24:20.165Z,47
2017-08-26T11:25:22.608Z,49
2017-08-26T11:26:25.065Z,46
2017-08-26T11:27:27.517Z,47
2017-08-26T11:28:29.962Z,48
2017-08-26T11:29:33.105Z,50
2017-08-26T11:30:35.916Z,46
2017-08-26T11:31:38.367Z,45
2017-08-26T11:32:40.817Z,46
2017-08-26T11:33:43.272Z,47
2017-08-26T11:34:45.715Z,45
2017-08-26T11:35:48.160Z,48
2017-08-26T11:36:50.616Z,46
2017-08-26T11:37:53.411Z,48
2017-08-26T11:38:55.865Z,47
2017-08-26T11:39:58.320Z,47
2017-08-26T11:41:00.762Z,47
2017-08-26T11:42:03.559Z,47
2017-08-26T11:43:06.019Z,47
2017-08-26T11:44:08.459Z,48
2017-08-26T11:45:10.905Z,48
2017-08-26T11:46:13.691Z,48
2017-08-26T11:47:16.139Z,47
2017-08-26T11:48:18.596Z,46
2017-08-26T11:49:21.047Z,47
2017-08-26T11:50:23.482Z,49
2017-08-26T11:51:25.935Z,46
2017-08-26T11:52:28.386Z,47
2017-08-26T11:53:30.835Z,48
2017-08-26T11:54:33.282Z,46
2017-08-26T11:55:35.732Z,45
2017-08-26T11:56:38.523Z,46
2017-08-26T11:57:40.983Z,47
2017-08-26T11:58:43.432Z,50
2017-08-26T11:59:45.879Z,49
2017-08-26T12:00:48.328Z,48
2017-08-26T12:01:50.782Z,46
2017-08-26T12:02:53.230Z,47
2017-08-26T12:03:55.676Z,51
2017-08-26T12:04:58.128Z,51
2017-08-26T12:06:00.580Z,51
2017-08-26T12:07:03.360Z,49
2017-08-26T12:08:05.811Z,48
2017-08-26T12:09:08.268Z,49
2017-08-26T12:10:10.722Z,46
2017-08-26T12:11:13.180Z,45
2017-08-26T12:12:15.642Z,47
2017-08-26T12:13:18.437Z,48
2017-08-26T12:14:20.896Z,50
2017-08-26T12:15:23.350Z,51
2017-08-26T12:16:25.794Z,53
2017-08-26T12:17:28.249Z,49
2017-08-26T12:18:30.998Z,49
2017-08-26T12:19:33.449Z,50
2017-08-26T12:20:35.896Z,49
2017-08-26T12:21:38.696Z,48
2017-08-26T12:22:41.488Z,49
2017-08-26T12:23:43.952Z,47
2017-08-26T12:24:46.398Z,46
2017-08-26T12:25:48.854Z,45
2017-08-26T12:26:51.660Z,46
2017-08-26T12:27:54.108Z,46
2017-08-26T12:28:56.556Z,47
2017-08-26T12:29:59.009Z,48
2017-08-26T12:31:01.452Z,50
2017-08-26T12:32:04.270Z,49
2017-08-26T12:33:06.714Z,53
2017-08-26T12:34:09.171Z,54
2017-08-26T12:35:11.769Z,51
2017-08-26T12:36:14.219Z,49
2017-08-26T12:37:16.669Z,47
2017-08-26T12:38:19.479Z,49
2017-08-26T12:39:21.925Z,48
2017-08-26T12:40:24.377Z,47
2017-08-26T12:41:26.823Z,48
2017-08-26T12:42:29.276Z,50
2017-08-26T12:43:31.722Z,57
2017-08-26T12:44:34.167Z,55
2017-08-26T12:45:36.609Z,50
2017-08-26T12:46:39.061Z,48
2017-08-26T12:47:41.511Z,50
2017-08-26T12:48:43.959Z,53
2017-08-26T12:49:46.406Z,49
2017-08-26T12:50:48.857Z,48
2017-08-26T12:51:51.305Z,48
2017-08-26T12:52:53.758Z,48
2017-08-26T12:53:56.208Z,48
2017-08-26T12:54:59.000Z,49
2017-08-26T12:56:01.448Z,49
2017-08-26T12:57:03.901Z,48
2017-08-26T12:58:06.342Z,48
2017-08-26T12:59:08.783Z,49
2017-08-26T13:00:11.229Z,47
2017-08-26T13:01:13.674Z,47
2017-08-26T13:02:16.127Z,48
2017-08-26T13:03:18.578Z,49
2017-08-26T13:04:21.029Z,48
2017-08-26T13:05:23.849Z,50
2017-08-26T13:06:26.290Z,50
2017-08-26T13:07:29.079Z,47
2017-08-26T13:08:31.533Z,49
2017-08-26T13:09:33.977Z,49
2017-08-26T13:10:36.426Z,49
2017-08-26T13:11:38.870Z,45
2017-08-26T13:12:41.307Z,45
2017-08-26T13:13:43.768Z,47
2017-08-26T13:14:46.218Z,51
2017-08-26T13:15:48.663Z,49
2017-08-26T13:16:51.118Z,46
2017-08-26T13:17:53.572Z,46
2017-08-26T13:18:56.015Z,47
2017-08-26T13:19:58.468Z,49
2017-08-26T13:21:00.914Z,48
2017-08-26T13:22:03.362Z,46
2017-08-26T13:23:05.826Z,48
2017-08-26T13:24:08.259Z,49
2017-08-26T13:25:10.710Z,50
2017-08-26T13:26:13.158Z,48
2017-08-26T13:27:15.946Z,48
2017-08-26T13:28:18.404Z,52
2017-08-26T13:29:20.858Z,50
2017-08-26T13:30:23.302Z,53
2017-08-26T13:31:25.753Z,50
2017-08-26T13:32:28.204Z,51
2017-08-26T13:33:30.657Z,47
2017-08-26T13:34:33.121Z,46
2017-08-26T13:35:35.571Z,44
2017-08-26T13:36:38.022Z,45
2017-08-26T13:37:40.467Z,44
2017-08-26T13:38:42.913Z,45
2017-08-26T13:39:45.370Z,45
2017-08-26T13:40:47.818Z,47
2017-08-26T13:41:50.272Z,48
2017-08-26T13:42:52.729Z,48
2017-08-26T13:43:55.180Z,48
2017-08-26T13:44:57.640Z,47
2017-08-26T13:46:00.424Z,47
2017-08-26T13:47:03.228Z,49
2017-08-26T13:48:05.682Z,50
2017-08-26T13:49:08.126Z,48
2017-08-26T13:50:10.578Z,51
2017-08-26T13:51:13.030Z,50
2017-08-26T13:52:15.487Z,49
2017-08-26T13:53:18.620Z,49
2017-08-26T13:54:21.080Z,48
2017-08-26T13:55:23.528Z,49
2017-08-26T13:56:26.327Z,50
2017-08-26T13:57:28.790Z,51
2017-08-26T13:58:31.238Z,50
2017-08-26T13:59:33.691Z,50
2017-08-26T14:00:36.147Z,53
2017-08-26T14:01:38.590Z,52
2017-08-26T14:02:41.048Z,51
2017-08-26T14:03:43.502Z,51
2017-08-26T14:04:45.948Z,51
2017-08-26T14:05:49.034Z,55
2017-08-26T14:06:51.823Z,56
2017-08-26T14:07:54.272Z,51
2017-08-26T14:08:56.725Z,53
2017-08-26T14:09:59.176Z,52
2017-08-26T14:11:01.615Z,56
2017-08-26T14:12:04.065Z,60
2017-08-26T14:13:06.513Z,59
2017-08-26T14:14:08.965Z,52
2017-08-26T14:15:11.418Z,51
2017-08-26T14:16:13.867Z,51
2017-08-26T14:17:16.323Z,53
2017-08-26T14:18:18.774Z,58
2017-08-26T14:19:21.219Z,52
2017-08-26T14:20:23.670Z,57
2017-08-26T14:21:26.460Z,54
2017-08-26T14:22:29.245Z,53
2017-08-26T14:23:31.691Z,53
2017-08-26T14:24:34.142Z,52
2017-08-26T14:25:36.591Z,50
2017-08-26T14:26:39.041Z,50
2017-08-26T14:27:41.484Z,51
2017-08-26T14:28:43.930Z,51
2017-08-26T14:29:46.381Z,52
2017-08-26T14:30:48.824Z,51
2017-08-26T14:31:51.276Z,50
2017-08-26T14:32:53.718Z,49
2017-08-26T14:33:56.169Z,51
2017-08-26T14:34:58.616Z,49
2017-08-26T14:36:01.061Z,50
2017-08-26T14:37:03.502Z,50
2017-08-26T14:38:05.963Z,50
2017-08-26T14:39:08.745Z,54
2017-08-26T14:40:11.193Z,52
2017-08-26T14:41:13.642Z,56
2017-08-26T14:42:16.448Z,52
2017-08-26T14:43:18.902Z,57
2017-08-26T14:44:21.361Z,57
2017-08-26T14:45:23.795Z,53
2017-08-26T14:46:26.254Z,56
2017-08-26T14:47:28.700Z,56
2017-08-26T14:48:31.137Z,58
2017-08-26T14:49:33.596Z,57
2017-08-26T14:50:36.056Z,58
2017-08-26T14:51:38.514Z,55
2017-08-26T14:52:40.969Z,52